createdAt,value
2022-09-23T00:01:21.177Z,81.35
2022-09-23T00:03:49.320Z,82.70
2022-09-23T00:06:20.449Z,75.90
2022-09-23T00:08:51.312Z,85.38
2022-09-23T00:11:24.482Z,84.43
2022-09-23T00:13:56.093Z,95.47
2022-09-23T00:18:56.558Z,83.15
2022-09-23T00:21:25.286Z,84.72
2022-09-23T00:23:53.185Z,93.68
2022-09-23T00:26:22.375Z,84.03
2022-09-23T00:28:50.794Z,81.45
2022-09-23T00:31:21.424Z,77.47
2022-09-23T00:33:57.310Z,64.20
2022-09-23T00:36:26.199Z,78.68
2022-09-23T00:38:54.147Z,77.20
2022-09-23T00:41:22.410Z,80.40
2022-09-23T00:43:53.843Z,79.80
2022-09-23T00:46:27.640Z,80.82
2022-09-23T00:49:11.382Z,75.82
2022-09-23T00:51:44.801Z,71.20
2022-09-23T00:54:12.372Z,70.45
2022-09-23T00:56:40.605Z,64.90
2022-09-23T00:59:10.441Z,68.43
2022-09-23T01:01:39.088Z,76.75
2022-09-23T01:04:07.895Z,87.68
2022-09-23T01:06:35.754Z,74.82
2022-09-23T01:09:03.580Z,64.65
2022-09-23T01:12:10.144Z,60.35
2022-09-23T01:15:00.817Z,65.07
2022-09-23T01:17:54.777Z,53.83
2022-09-23T01:20:44.617Z,47.17
2022-09-23T01:23:37.837Z,52.47
2022-09-23T01:26:26.497Z,45.58
2022-09-23T01:29:02.951Z,46.53
2022-09-23T01:31:39.613Z,56.53
2022-09-23T01:34:15.975Z,44.42
2022-09-23T01:36:51.629Z,43.55
2022-09-23T01:39:42.014Z,52.72
2022-09-23T01:42:45.245Z,49.75
2022-09-23T01:45:29.174Z,46.58
2022-09-23T01:48:03.007Z,46.78
2022-09-23T01:50:54.690Z,45.15
2022-09-23T01:53:56.748Z,50.47
2022-09-23T01:59:26.610Z,50.47
2022-09-23T02:02:08.021Z,54.85
2022-09-23T02:04:45.718Z,51.35
2022-09-23T02:07:30.329Z,56.38
2022-09-23T02:10:10.886Z,51.40
2022-09-23T02:12:41.006Z,53.03
2022-09-23T02:15:19.693Z,60.40
2022-09-23T02:17:53.390Z,55.42
2022-09-23T02:20:30.321Z,58.28
2022-09-23T02:23:21.492Z,60.97
2022-09-23T02:26:05.682Z,58.47
2022-09-23T02:28:44.925Z,59.33
2022-09-23T02:31:15.154Z,51.42
2022-09-23T02:34:07.794Z,56.45
2022-09-23T02:37:00.118Z,51.30
2022-09-23T02:39:34.757Z,51.30
2022-09-23T02:42:10.144Z,51.55
2022-09-23T02:44:37.824Z,53.30
2022-09-23T02:47:05.471Z,51.70
2022-09-23T02:49:35.243Z,55.53
2022-09-23T02:52:07.750Z,50.08
2022-09-23T02:54:36.757Z,48.42
2022-09-23T02:57:07.022Z,52.60
2022-09-23T02:59:36.002Z,48.45
2022-09-23T03:02:20.630Z,49.78
2022-09-23T03:05:01.545Z,47.60
2022-09-23T03:07:52.359Z,46.17
2022-09-23T03:10:25.793Z,49.33
2022-09-23T03:13:16.609Z,51.80
2022-09-23T03:16:00.569Z,50.10
2022-09-23T03:18:56.599Z,50.80
2022-09-23T03:21:38.868Z,51.90
2022-09-23T03:24:09.566Z,53.45
2022-09-23T03:26:39.818Z,51.63
2022-09-23T03:29:11.259Z,49.47
2022-09-23T03:31:40.188Z,55.97
2022-09-23T03:34:17.961Z,50.92
2022-09-23T03:36:56.210Z,46.72
2022-09-23T03:39:43.324Z,50.67
2022-09-23T03:42:19.874Z,54.33
2022-09-23T03:44:48.980Z,46.42
2022-09-23T03:47:16.899Z,39.67
2022-09-23T03:49:48.491Z,41.08
2022-09-23T03:54:44.268Z,39.20
2022-09-23T03:57:12.477Z,44.08
2022-09-23T03:59:40.660Z,49.55
2022-09-23T04:02:09.010Z,41.17
2022-09-23T04:04:37.890Z,37.03
2022-09-23T04:07:05.590Z,34.67
2022-09-23T04:09:33.274Z,36.45
2022-09-23T04:12:01.127Z,37.22
2022-09-23T04:14:28.674Z,39.75
2022-09-23T04:16:56.357Z,40.35
2022-09-23T04:19:23.972Z,36.13
2022-09-23T04:21:51.539Z,37.75
2022-09-23T04:24:19.221Z,39.53
2022-09-23T04:26:49.863Z,36.58
2022-09-23T04:29:17.438Z,40.42
2022-09-23T04:31:45.107Z,38.78
2022-09-23T04:34:12.772Z,34.80
2022-09-23T04:36:40.336Z,41.47
2022-09-23T04:39:07.933Z,41.33
2022-09-23T04:41:35.545Z,37.92
2022-09-23T04:44:03.415Z,39.25
2022-09-23T04:46:31.232Z,39.60
2022-09-23T04:48:59.006Z,44.95
2022-09-23T04:51:27.629Z,44.47
2022-09-23T04:53:56.130Z,38.17
2022-09-23T04:56:26.476Z,43.10
2022-09-23T04:58:54.396Z,38.63
2022-09-23T05:01:27.659Z,41.30
2022-09-23T05:04:02.436Z,43.90
2022-09-23T05:06:31.566Z,39.10
2022-09-23T05:08:59.639Z,40.17
2022-09-23T05:11:30.425Z,46.55
2022-09-23T05:13:58.211Z,40.10
2022-09-23T05:16:27.141Z,41.42
2022-09-23T05:18:54.991Z,43.92
2022-09-23T05:21:23.930Z,44.67
2022-09-23T05:23:54.999Z,55.50
2022-09-23T05:26:25.656Z,42.08
2022-09-23T05:28:54.396Z,48.72
2022-09-23T05:31:24.495Z,51.45
2022-09-23T05:33:55.498Z,50.10
2022-09-23T05:36:24.167Z,37.17
2022-09-23T05:38:52.753Z,36.90
2022-09-23T05:41:25.337Z,30.58
2022-09-23T05:43:54.069Z,32.70
2022-09-23T05:46:27.977Z,36.05
2022-09-23T05:49:01.796Z,33.55
2022-09-23T05:51:32.618Z,30.65
2022-09-23T05:54:03.021Z,35.22
2022-09-23T05:56:32.058Z,36.53
2022-09-23T05:59:01.560Z,40.67
2022-09-23T06:01:33.997Z,38.33
2022-09-23T06:04:03.700Z,38.67
2022-09-23T06:06:39.677Z,37.70
2022-09-23T06:09:11.432Z,30.05
2022-09-23T06:11:39.556Z,42.75
2022-09-23T06:14:09.658Z,38.28
2022-09-23T06:16:37.306Z,31.98
2022-09-23T06:19:07.853Z,35.45
2022-09-23T06:21:38.107Z,37.88
2022-09-23T06:24:08.323Z,30.65
2022-09-23T06:26:38.204Z,30.75
2022-09-23T06:29:12.291Z,28.10
2022-09-23T06:31:42.074Z,28.48
2022-09-23T06:34:13.200Z,29.27
2022-09-23T06:39:14.981Z,25.67
2022-09-23T06:41:43.326Z,24.02
2022-09-23T06:44:14.810Z,26.10
2022-09-23T06:46:42.565Z,24.45
2022-09-23T06:49:10.766Z,24.40
2022-09-23T06:51:40.257Z,22.70
2022-09-23T06:54:08.133Z,22.40
2022-09-23T06:56:39.155Z,21.02
2022-09-23T06:59:10.860Z,24.92
2022-09-23T07:01:38.761Z,23.15
2022-09-23T07:04:07.639Z,20.60
2022-09-23T07:06:35.870Z,19.95
2022-09-23T07:09:05.332Z,23.77
2022-09-23T07:11:33.333Z,24.20
2022-09-23T07:14:00.808Z,23.60
2022-09-23T07:16:28.464Z,16.20
2022-09-23T07:18:56.101Z,19.90
2022-09-23T07:21:24.183Z,21.42
2022-09-23T07:23:52.096Z,17.17
2022-09-23T07:26:21.143Z,17.48
2022-09-23T07:28:53.165Z,16.00
2022-09-23T07:31:32.359Z,15.95
2022-09-23T07:34:04.444Z,20.63
2022-09-23T07:36:32.892Z,15.35
2022-09-23T07:39:02.246Z,15.35
2022-09-23T07:41:31.766Z,16.27
2022-09-23T07:44:00.418Z,15.88
2022-09-23T07:46:30.416Z,13.15
2022-09-23T07:48:58.634Z,14.48
2022-09-23T07:51:34.749Z,14.98
2022-09-23T07:54:07.918Z,15.20
2022-09-23T07:56:36.657Z,17.75
2022-09-23T07:59:05.887Z,16.88
2022-09-23T08:01:36.198Z,13.13
2022-09-23T08:04:11.618Z,12.27
2022-09-23T08:06:42.966Z,13.20
2022-09-23T08:09:11.194Z,16.50
2022-09-23T08:11:41.953Z,14.77
2022-09-23T08:14:12.446Z,17.95
2022-09-23T08:16:41.198Z,13.90
2022-09-23T08:19:08.787Z,11.60
2022-09-23T08:21:41.970Z,16.75
2022-09-23T08:24:14.329Z,13.65
2022-09-23T08:26:42.382Z,9.27
2022-09-23T08:29:13.475Z,10.00
2022-09-23T08:31:41.477Z,8.63
2022-09-23T08:34:09.254Z,9.05
2022-09-23T08:36:37.076Z,11.23
2022-09-23T08:39:05.322Z,12.25
2022-09-23T08:41:58.545Z,7.63
2022-09-23T08:44:33.087Z,9.43
2022-09-23T08:47:08.221Z,8.82
2022-09-23T08:49:40.654Z,7.95
2022-09-23T08:52:34.564Z,8.57
2022-09-23T08:55:03.907Z,11.60
2022-09-23T08:58:23.280Z,7.35
2022-09-23T09:00:53.198Z,8.43
2022-09-23T09:03:26.377Z,7.40
2022-09-23T09:05:55.100Z,10.60
2022-09-23T09:08:31.661Z,9.90
2022-09-23T09:10:59.548Z,7.45
2022-09-23T09:13:37.670Z,9.27
2022-09-23T09:16:59.653Z,8.35
2022-09-23T09:19:54.054Z,8.07
2022-09-23T09:25:19.293Z,8.40
2022-09-23T09:27:48.642Z,8.32
2022-09-23T09:30:17.476Z,10.75
2022-09-23T09:32:48.377Z,19.17
2022-09-23T09:35:22.055Z,7.63
2022-09-23T09:37:49.626Z,7.82
2022-09-23T09:40:17.594Z,8.10
2022-09-23T09:42:49.109Z,5.25
2022-09-23T09:45:57.881Z,8.55
2022-09-23T09:48:54.412Z,7.90
2022-09-23T09:51:24.494Z,6.22
2022-09-23T09:53:52.601Z,6.85
2022-09-23T09:56:27.279Z,7.20
2022-09-23T09:59:23.418Z,5.80
2022-09-23T10:02:20.073Z,9.50
2022-09-23T10:04:56.173Z,8.23
2022-09-23T10:07:32.436Z,6.85
2022-09-23T10:10:32.544Z,8.13
2022-09-23T10:13:16.143Z,8.88
2022-09-23T10:15:45.418Z,6.78
2022-09-23T10:18:38.329Z,9.55
2022-09-23T10:21:15.074Z,5.75
2022-09-23T10:23:45.367Z,6.03
2022-09-23T10:26:17.367Z,7.75
2022-09-23T10:28:59.685Z,8.93
2022-09-23T10:31:33.122Z,7.25
2022-09-23T10:34:26.495Z,7.57
2022-09-23T10:37:14.494Z,7.63
2022-09-23T10:40:00.930Z,8.95
2022-09-23T10:43:12.947Z,5.88
2022-09-23T10:45:59.652Z,8.13
2022-09-23T10:48:54.866Z,7.85
2022-09-23T10:51:43.723Z,11.68
2022-09-23T10:54:32.155Z,6.85
2022-09-23T10:57:25.487Z,4.53
2022-09-23T11:00:02.381Z,8.07
2022-09-23T11:02:41.813Z,7.47
2022-09-23T11:05:18.678Z,8.63
2022-09-23T11:08:18.367Z,7.55
2022-09-23T11:11:18.506Z,5.22
2022-09-23T11:14:17.278Z,7.72
2022-09-23T11:17:18.461Z,6.38
2022-09-23T11:20:30.394Z,8.80
2022-09-23T11:23:35.257Z,6.53
2022-09-23T11:26:46.917Z,5.60
2022-09-23T11:29:56.488Z,7.45
2022-09-23T11:32:31.155Z,3.78
2022-09-23T11:35:15.223Z,6.88
2022-09-23T11:37:47.058Z,6.93
2022-09-23T11:40:17.759Z,4.78
2022-09-23T11:43:00.207Z,7.07
2022-09-23T11:45:33.273Z,8.38
2022-09-23T11:48:14.523Z,7.88
2022-09-23T11:50:58.021Z,6.80
2022-09-23T11:53:31.374Z,4.30
2022-09-23T11:56:34.523Z,3.40
2022-09-23T11:59:36.561Z,5.55
2022-09-23T12:02:23.744Z,7.32
2022-09-23T12:05:08.532Z,6.05
2022-09-23T12:08:05.462Z,4.72
2022-09-23T12:11:06.532Z,7.13
2022-09-23T12:13:48.184Z,8.40
2022-09-23T12:16:43.583Z,8.55
2022-09-23T12:19:13.951Z,4.90
2022-09-23T12:21:56.628Z,7.17
2022-09-23T12:24:54.058Z,6.82
2022-09-23T12:27:30.750Z,7.78
2022-09-23T12:30:03.308Z,15.15
2022-09-23T12:32:32.466Z,7.03
2022-09-23T12:35:01.050Z,4.70
2022-09-23T12:37:36.083Z,5.07
2022-09-23T12:40:19.114Z,5.68
2022-09-23T12:42:47.993Z,8.13
2022-09-23T12:45:34.685Z,4.55
2022-09-23T12:48:04.911Z,4.10
2022-09-23T12:51:13.324Z,6.03
2022-09-23T12:53:55.640Z,5.00
2022-09-23T12:56:24.923Z,6.80
2022-09-23T12:58:59.452Z,5.22
2022-09-23T13:01:27.786Z,7.25
2022-09-23T13:04:16.611Z,5.85
2022-09-23T13:06:56.650Z,3.92
2022-09-23T13:09:28.794Z,4.00
2022-09-23T13:12:02.888Z,4.32
2022-09-23T13:14:33.089Z,6.13
2022-09-23T13:17:01.186Z,4.45
2022-09-23T13:19:28.649Z,6.55
2022-09-23T13:22:01.446Z,6.93
2022-09-23T13:24:45.122Z,5.75
2022-09-23T13:27:18.445Z,4.80
2022-09-23T13:30:25.689Z,4.82
2022-09-23T13:33:24.122Z,9.35
2022-09-23T13:35:56.723Z,5.60
2022-09-23T13:38:26.842Z,6.00
2022-09-23T13:41:00.330Z,3.80
2022-09-23T13:43:31.635Z,5.68
2022-09-23T13:46:00.780Z,7.57
2022-09-23T13:48:28.709Z,8.15
2022-09-23T13:50:56.428Z,4.18
2022-09-23T13:53:31.043Z,3.65
2022-09-23T13:56:13.400Z,4.72
2022-09-23T13:58:41.524Z,5.30
2022-09-23T14:01:34.830Z,4.35
2022-09-23T14:04:02.719Z,5.28
2022-09-23T14:06:31.907Z,4.82
2022-09-23T14:09:02.553Z,8.75
2022-09-23T14:11:33.312Z,6.80
2022-09-23T14:14:07.171Z,7.43
2022-09-23T14:16:40.705Z,6.57
2022-09-23T14:19:17.652Z,5.20
2022-09-23T14:21:49.493Z,5.82
2022-09-23T14:24:24.379Z,3.17
2022-09-23T14:27:06.996Z,4.78
2022-09-23T14:29:40.228Z,6.70
2022-09-23T14:32:21.124Z,5.28
2022-09-23T14:34:53.296Z,3.65
2022-09-23T14:37:55.088Z,4.60
2022-09-23T14:40:37.886Z,5.13
2022-09-23T14:43:26.825Z,7.95
2022-09-23T14:45:57.411Z,5.68
2022-09-23T14:48:29.542Z,5.85
2022-09-23T14:51:07.717Z,7.32
2022-09-23T14:53:43.075Z,3.83
2022-09-23T14:56:22.086Z,4.22
2022-09-23T14:58:57.994Z,4.40
2022-09-23T15:01:25.615Z,3.15
2022-09-23T15:03:54.426Z,7.40
2022-09-23T15:06:23.802Z,4.60
2022-09-23T15:08:54.572Z,5.15
2022-09-23T15:11:22.747Z,5.45
2022-09-23T15:13:52.738Z,5.28
2022-09-23T15:16:27.238Z,2.60
2022-09-23T15:18:57.721Z,3.08
2022-09-23T15:21:32.414Z,6.22
2022-09-23T15:24:00.037Z,4.68
2022-09-23T15:26:47.438Z,4.75
2022-09-23T15:29:14.981Z,4.10
2022-09-23T15:31:42.745Z,5.95
2022-09-23T15:34:10.953Z,9.15
2022-09-23T15:36:38.653Z,5.35
2022-09-23T15:39:08.737Z,5.32
2022-09-23T15:41:36.282Z,4.78
2022-09-23T15:44:14.943Z,4.53
2022-09-23T15:46:47.169Z,7.05
2022-09-23T15:49:27.817Z,5.85
2022-09-23T15:51:59.886Z,6.38
2022-09-23T15:54:32.522Z,5.82
2022-09-23T15:57:01.139Z,5.30
2022-09-23T15:59:31.067Z,5.03
2022-09-23T16:02:03.482Z,4.57
2022-09-23T16:04:31.706Z,6.88
2022-09-23T16:06:59.270Z,6.28
2022-09-23T16:09:30.662Z,5.05
2022-09-23T16:11:58.233Z,4.75
2022-09-23T16:14:25.779Z,6.38
2022-09-23T16:16:53.440Z,6.80
2022-09-23T16:19:21.003Z,7.63
2022-09-23T16:21:48.737Z,7.68
2022-09-23T16:24:18.401Z,9.32
2022-09-23T16:26:48.667Z,9.07
2022-09-23T16:29:16.406Z,4.95
2022-09-23T16:31:43.983Z,4.03
2022-09-23T16:34:11.485Z,6.22
2022-09-23T16:36:43.503Z,6.75
2022-09-23T16:39:13.219Z,8.05
2022-09-23T16:41:43.462Z,5.78
2022-09-23T16:44:12.532Z,6.47
2022-09-23T16:46:42.890Z,4.03
2022-09-23T16:49:12.127Z,5.27
2022-09-23T16:51:40.138Z,4.15
2022-09-23T16:54:11.571Z,6.25
2022-09-23T16:56:45.032Z,11.18
2022-09-23T16:59:14.977Z,7.70
2022-09-23T17:02:01.830Z,6.88
2022-09-23T17:04:29.501Z,12.98
2022-09-23T17:06:57.165Z,11.65
2022-09-23T17:09:27.398Z,9.23
2022-09-23T17:12:22.173Z,8.43
2022-09-23T17:14:49.805Z,5.80
2022-09-23T17:17:17.677Z,4.80
2022-09-23T17:19:45.609Z,5.28
2022-09-23T17:22:13.353Z,5.57
2022-09-23T17:24:40.932Z,5.22
2022-09-23T17:27:08.602Z,7.90
2022-09-23T17:29:36.362Z,8.32
2022-09-23T17:32:04.990Z,4.85
2022-09-23T17:34:33.493Z,5.93
2022-09-23T17:37:02.464Z,6.55
2022-09-23T17:39:31.802Z,5.13
2022-09-23T17:41:59.354Z,4.47
2022-09-23T17:44:26.985Z,6.60
2022-09-23T17:46:54.518Z,4.50
2022-09-23T17:49:24.193Z,7.25
2022-09-23T17:51:51.760Z,6.68
2022-09-23T17:54:19.326Z,10.63
2022-09-23T17:56:46.934Z,6.10
2022-09-23T17:59:14.556Z,9.02
2022-09-23T18:01:42.179Z,5.68
2022-09-23T18:04:09.880Z,6.35
2022-09-23T18:06:37.928Z,6.72
2022-09-23T18:09:07.746Z,8.65
2022-09-23T18:11:42.221Z,8.45
2022-09-23T18:14:17.785Z,5.85
2022-09-23T18:16:48.130Z,8.40
2022-09-23T18:19:18.675Z,6.20
2022-09-23T18:21:52.019Z,4.88
2022-09-23T18:24:35.261Z,4.85
2022-09-23T18:27:02.969Z,8.77
2022-09-23T18:29:30.482Z,9.30
2022-09-23T18:31:59.412Z,7.78
2022-09-23T18:34:27.154Z,5.95
2022-09-23T18:36:56.153Z,8.15
2022-09-23T18:39:23.758Z,7.78
2022-09-23T18:41:51.458Z,8.25
2022-09-23T18:44:20.040Z,6.50
2022-09-23T18:46:47.606Z,8.32
2022-09-23T18:49:35.406Z,6.72
2022-09-23T18:52:03.203Z,24.63
2022-09-23T18:54:31.532Z,11.73
2022-09-23T18:56:59.369Z,13.05
2022-09-23T18:59:31.804Z,9.40
2022-09-23T19:01:59.629Z,7.28
2022-09-23T19:04:27.655Z,6.55
2022-09-23T19:06:57.201Z,8.18
2022-09-23T19:09:24.865Z,7.13
2022-09-23T19:11:53.455Z,6.38
2022-09-23T19:14:21.399Z,8.27
2022-09-23T19:16:49.656Z,10.77
2022-09-23T19:19:17.576Z,9.60
2022-09-23T19:21:45.287Z,10.88
2022-09-23T19:24:15.997Z,8.25
2022-09-23T19:26:44.405Z,7.60
2022-09-23T19:29:17.401Z,5.75
2022-09-23T19:31:45.248Z,13.35
2022-09-23T19:34:16.054Z,6.43
2022-09-23T19:36:46.004Z,7.10
2022-09-23T19:39:24.409Z,11.60
2022-09-23T19:41:55.596Z,8.07
2022-09-23T19:44:26.720Z,11.07
2022-09-23T19:46:56.943Z,7.82
2022-09-23T19:49:25.808Z,9.23
2022-09-23T19:51:55.932Z,6.57
2022-09-23T19:54:26.643Z,8.05
2022-09-23T19:56:54.577Z,6.43
2022-09-23T19:59:22.481Z,10.73
2022-09-23T20:01:50.142Z,7.65
2022-09-23T20:04:17.798Z,16.13
2022-09-23T20:06:46.203Z,9.70
2022-09-23T20:09:14.430Z,10.10
2022-09-23T20:11:44.111Z,7.13
2022-09-23T20:14:12.466Z,7.07
2022-09-23T20:16:40.484Z,10.52
2022-09-23T20:19:10.105Z,9.82
2022-09-23T20:21:38.053Z,7.05
2022-09-23T20:24:06.978Z,7.30
2022-09-23T20:26:53.334Z,11.18
2022-09-23T20:29:20.912Z,9.63
2022-09-23T20:31:48.535Z,14.45
2022-09-23T20:34:16.207Z,12.13
2022-09-23T20:36:44.241Z,9.23
2022-09-23T20:39:12.065Z,11.77
2022-09-23T20:41:39.944Z,10.02
2022-09-23T20:44:12.423Z,12.55
2022-09-23T20:46:48.280Z,11.63
2022-09-23T20:49:17.685Z,10.05
2022-09-23T20:51:47.642Z,9.85
2022-09-23T20:54:21.566Z,12.45
2022-09-23T20:56:50.401Z,13.10
2022-09-23T20:59:18.204Z,7.30
2022-09-23T21:01:47.613Z,9.90
2022-09-23T21:04:15.716Z,13.20
2022-09-23T21:06:43.258Z,9.18
2022-09-23T21:09:10.761Z,11.07
2022-09-23T21:11:39.136Z,10.07
2022-09-23T21:14:06.855Z,17.25
2022-09-23T21:16:34.612Z,11.23
2022-09-23T21:19:03.242Z,11.00
2022-09-23T21:21:30.916Z,12.52
2022-09-23T21:24:17.193Z,17.52
2022-09-23T21:26:47.808Z,13.75
2022-09-23T21:29:15.426Z,14.95
2022-09-23T21:31:43.329Z,11.70
2022-09-23T21:34:12.880Z,14.63
2022-09-23T21:36:43.132Z,14.90
2022-09-23T21:39:11.694Z,13.82
2022-09-23T21:41:40.040Z,15.90
2022-09-23T21:44:08.525Z,14.68
2022-09-23T21:46:37.064Z,12.88
2022-09-23T21:49:05.265Z,12.05
2022-09-23T21:51:41.013Z,13.30
2022-09-23T21:54:15.663Z,17.40
2022-09-23T21:56:44.902Z,13.15
2022-09-23T21:59:13.103Z,12.98
2022-09-23T22:01:49.363Z,13.90
2022-09-23T22:04:21.091Z,11.82
2022-09-23T22:06:49.225Z,13.02
2022-09-23T22:09:21.730Z,10.35
2022-09-23T22:12:07.989Z,15.52
2022-09-23T22:14:35.787Z,10.38
2022-09-23T22:17:05.631Z,15.00
2022-09-23T22:19:35.857Z,13.57
2022-09-23T22:22:12.825Z,13.13
2022-09-23T22:24:42.122Z,14.43
2022-09-23T22:27:11.338Z,13.43
2022-09-23T22:29:57.382Z,15.45
2022-09-23T22:32:43.889Z,15.35
2022-09-23T22:35:13.963Z,9.98
2022-09-23T22:37:41.618Z,9.88
2022-09-23T22:40:14.443Z,10.27
2022-09-23T22:42:43.127Z,11.57
2022-09-23T22:45:12.089Z,11.30
2022-09-23T22:47:41.096Z,9.48
2022-09-23T22:50:09.806Z,9.75
2022-09-23T22:52:37.905Z,10.48
2022-09-23T22:55:08.172Z,9.93
2022-09-23T22:57:36.783Z,13.00
2022-09-23T23:00:06.173Z,9.05
2022-09-23T23:02:33.908Z,10.23
2022-09-23T23:05:02.308Z,9.68
2022-09-23T23:07:30.062Z,13.95
2022-09-23T23:09:57.552Z,8.00
2022-09-23T23:12:25.485Z,11.88
2022-09-23T23:14:53.020Z,10.10
2022-09-23T23:17:22.028Z,6.68
2022-09-23T23:19:50.881Z,9.13
2022-09-23T23:22:18.503Z,8.82
2022-09-23T23:24:46.313Z,7.30
2022-09-23T23:27:13.968Z,9.27
2022-09-23T23:29:41.921Z,8.73
2022-09-23T23:32:09.929Z,8.68
2022-09-23T23:34:37.929Z,7.57
2022-09-23T23:37:05.470Z,10.43
2022-09-23T23:39:34.572Z,10.20
2022-09-23T23:42:03.606Z,8.77
2022-09-23T23:44:33.914Z,9.43
2022-09-23T23:47:01.799Z,8.88
2022-09-23T23:49:29.782Z,12.70
2022-09-23T23:51:57.925Z,10.30
2022-09-23T23:54:25.472Z,14.75
2022-09-23T23:56:53.140Z,25.50
2022-09-23T23:59:21.002Z,20.25
